createdAt,value
2022-10-27T00:01:24.887Z,22.08
2022-10-27T00:03:52.582Z,15.80
2022-10-27T00:06:19.322Z,15.90
2022-10-27T00:08:46.172Z,24.08
2022-10-27T00:11:12.942Z,24.38
2022-10-27T00:13:39.915Z,24.08
2022-10-27T00:16:10.829Z,22.63
2022-10-27T00:18:37.857Z,19.15
2022-10-27T00:21:08.102Z,22.27
2022-10-27T00:23:35.755Z,24.45
2022-10-27T00:26:02.830Z,22.17
2022-10-27T00:28:30.444Z,16.83
2022-10-27T00:31:05.963Z,22.20
2022-10-27T00:33:33.572Z,24.45
2022-10-27T00:36:08.374Z,22.35
2022-10-27T00:38:35.763Z,20.77
2022-10-27T00:41:03.001Z,24.77
2022-10-27T00:43:32.945Z,22.25
2022-10-27T00:46:41.345Z,23.77
2022-10-27T00:49:14.123Z,22.73
2022-10-27T00:51:50.515Z,19.38
2022-10-27T00:54:20.093Z,16.17
2022-10-27T00:56:51.053Z,13.35
2022-10-27T00:59:19.752Z,16.45
2022-10-27T01:01:48.717Z,17.10
2022-10-27T01:04:20.461Z,26.27
2022-10-27T01:06:47.330Z,20.23
2022-10-27T01:09:14.573Z,22.38
2022-10-27T01:11:41.425Z,18.70
2022-10-27T01:14:08.286Z,21.95
2022-10-27T01:16:56.488Z,21.90
2022-10-27T01:19:29.062Z,23.10
2022-10-27T01:22:38.633Z,23.40
2022-10-27T01:25:23.901Z,31.10
2022-10-27T01:28:15.623Z,24.00
2022-10-27T01:30:54.359Z,21.67
2022-10-27T01:33:30.695Z,20.93
2022-10-27T01:36:06.037Z,22.25
2022-10-27T01:38:43.374Z,25.25
2022-10-27T01:41:23.598Z,22.17
2022-10-27T01:43:54.961Z,30.42
2022-10-27T01:46:21.903Z,26.57
2022-10-27T01:48:49.359Z,27.60
2022-10-27T01:51:16.226Z,20.92
2022-10-27T01:53:48.702Z,21.15
2022-10-27T01:56:46.364Z,16.60
2022-10-27T01:59:34.799Z,18.30
2022-10-27T02:02:04.590Z,17.48
2022-10-27T02:04:42.072Z,12.93
2022-10-27T02:07:14.778Z,15.77
2022-10-27T02:09:47.138Z,12.40
2022-10-27T02:12:23.189Z,14.97
2022-10-27T02:14:53.415Z,18.58
2022-10-27T02:17:23.525Z,20.95
2022-10-27T02:19:52.880Z,20.65
2022-10-27T02:22:20.841Z,24.80
2022-10-27T02:24:47.747Z,23.20
2022-10-27T02:27:34.764Z,24.38
2022-10-27T02:30:02.651Z,25.75
2022-10-27T02:32:30.511Z,18.20
2022-10-27T02:34:58.408Z,19.80
2022-10-27T02:37:37.929Z,27.00
2022-10-27T02:40:05.345Z,26.98
2022-10-27T02:42:32.106Z,22.45
2022-10-27T02:44:58.946Z,18.38
2022-10-27T02:47:25.830Z,21.38
2022-10-27T02:49:52.551Z,23.47
2022-10-27T02:52:19.554Z,20.80
2022-10-27T02:54:46.425Z,21.25
2022-10-27T02:57:13.178Z,22.08
2022-10-27T02:59:39.949Z,23.52
2022-10-27T03:02:06.788Z,18.57
2022-10-27T03:04:33.591Z,17.92
2022-10-27T03:07:00.391Z,28.15
2022-10-27T03:09:27.234Z,24.35
2022-10-27T03:11:54.110Z,26.50
2022-10-27T03:14:20.939Z,20.57
2022-10-27T03:16:47.864Z,25.65
2022-10-27T03:19:14.611Z,24.48
2022-10-27T03:21:41.382Z,26.00
2022-10-27T03:24:08.210Z,25.95
2022-10-27T03:26:34.949Z,22.20
2022-10-27T03:29:01.786Z,19.70
2022-10-27T03:31:29.039Z,23.88
2022-10-27T03:33:55.797Z,26.23
2022-10-27T03:36:22.746Z,26.35
2022-10-27T03:38:49.615Z,22.20
2022-10-27T03:41:16.437Z,19.92
2022-10-27T03:43:43.244Z,21.35
2022-10-27T03:46:10.928Z,15.98
2022-10-27T03:48:37.998Z,14.65
2022-10-27T03:51:04.863Z,18.47
2022-10-27T03:53:31.624Z,19.50
2022-10-27T03:55:58.411Z,17.50
2022-10-27T03:58:25.223Z,22.10
2022-10-27T04:00:52.068Z,25.20
2022-10-27T04:03:18.904Z,24.10
2022-10-27T04:05:50.249Z,24.67
2022-10-27T04:08:17.024Z,28.33
2022-10-27T04:10:43.853Z,24.98
2022-10-27T04:13:10.724Z,26.92
2022-10-27T04:15:37.552Z,25.53
2022-10-27T04:18:04.667Z,25.85
2022-10-27T04:20:31.635Z,25.55
2022-10-27T04:22:59.927Z,27.17
2022-10-27T04:25:27.025Z,27.58
2022-10-27T04:28:07.649Z,20.93
2022-10-27T04:30:34.983Z,18.58
2022-10-27T04:33:01.884Z,16.30
2022-10-27T04:35:29.358Z,14.68
2022-10-27T04:37:57.036Z,16.48
2022-10-27T04:40:24.279Z,17.87
2022-10-27T04:42:51.903Z,16.08
2022-10-27T04:45:19.107Z,16.70
2022-10-27T04:47:49.031Z,21.65
2022-10-27T04:50:17.333Z,26.70
2022-10-27T04:52:57.562Z,18.03
2022-10-27T04:55:25.801Z,23.55
2022-10-27T04:57:53.273Z,15.30
2022-10-27T05:00:20.904Z,16.60
2022-10-27T05:02:57.478Z,15.43
2022-10-27T05:05:26.182Z,16.57
2022-10-27T05:07:54.992Z,15.57
2022-10-27T05:10:22.192Z,18.40
2022-10-27T05:12:49.224Z,14.80
2022-10-27T05:15:16.433Z,14.05
2022-10-27T05:17:43.326Z,16.03
2022-10-27T05:20:10.616Z,17.17
2022-10-27T05:22:38.453Z,15.95
2022-10-27T05:25:07.299Z,16.45
2022-10-27T05:27:34.072Z,16.63
2022-10-27T05:30:00.801Z,16.00
2022-10-27T05:32:27.613Z,19.08
2022-10-27T05:34:54.371Z,17.00
2022-10-27T05:37:21.338Z,17.95
2022-10-27T05:39:48.188Z,14.95
2022-10-27T05:42:15.066Z,14.10
2022-10-27T05:44:41.914Z,14.52
2022-10-27T05:47:08.879Z,13.60
2022-10-27T05:49:35.672Z,12.32
2022-10-27T05:52:02.390Z,21.63
2022-10-27T05:54:29.225Z,32.10
2022-10-27T05:56:55.932Z,16.88
2022-10-27T05:59:22.638Z,14.35
2022-10-27T06:01:49.529Z,12.77
2022-10-27T06:04:16.451Z,14.32
2022-10-27T06:06:43.256Z,30.63
2022-10-27T06:09:10.137Z,35.65
2022-10-27T06:11:36.907Z,36.80
2022-10-27T06:14:03.706Z,16.27
2022-10-27T06:16:30.499Z,15.50
2022-10-27T06:18:57.350Z,14.50
2022-10-27T06:21:24.149Z,13.45
2022-10-27T06:23:51.264Z,14.90
2022-10-27T06:26:18.303Z,14.10
2022-10-27T06:28:45.073Z,13.85
2022-10-27T06:31:11.924Z,11.50
2022-10-27T06:33:38.646Z,14.50
2022-10-27T06:36:05.641Z,14.82
2022-10-27T06:38:32.448Z,11.10
2022-10-27T06:40:59.224Z,13.30
2022-10-27T06:43:25.971Z,12.73
2022-10-27T06:45:53.356Z,11.82
2022-10-27T06:48:20.137Z,13.20
2022-10-27T06:50:46.948Z,13.18
2022-10-27T06:53:13.972Z,11.23
2022-10-27T06:55:40.727Z,12.70
2022-10-27T06:58:07.437Z,9.48
2022-10-27T07:00:34.325Z,10.95
2022-10-27T07:03:06.448Z,9.45
2022-10-27T07:05:33.228Z,13.60
2022-10-27T07:08:00.138Z,14.50
2022-10-27T07:10:26.985Z,19.27
2022-10-27T07:13:01.922Z,16.75
2022-10-27T07:15:31.172Z,10.68
2022-10-27T07:18:01.034Z,12.45
2022-10-27T07:20:30.431Z,14.73
2022-10-27T07:22:59.934Z,12.73
2022-10-27T07:25:28.409Z,14.32
2022-10-27T07:27:55.815Z,13.10
2022-10-27T07:30:25.410Z,15.30
2022-10-27T07:32:52.178Z,10.60
2022-10-27T07:35:19.024Z,14.32
2022-10-27T07:37:47.053Z,12.43
2022-10-27T07:40:16.350Z,9.43
2022-10-27T07:42:47.929Z,13.60
2022-10-27T07:45:16.512Z,9.77
2022-10-27T07:47:48.928Z,11.93
2022-10-27T07:50:17.798Z,21.77
2022-10-27T07:52:46.894Z,26.77
2022-10-27T07:55:15.559Z,11.07
2022-10-27T07:57:43.768Z,8.33
2022-10-27T08:00:17.004Z,14.27
2022-10-27T08:02:44.680Z,11.85
2022-10-27T08:05:11.789Z,9.45
2022-10-27T08:07:39.180Z,11.77
2022-10-27T08:10:06.256Z,8.10
2022-10-27T08:12:33.184Z,8.13
2022-10-27T08:14:59.919Z,7.72
2022-10-27T08:17:26.809Z,7.70
2022-10-27T08:19:53.524Z,7.95
2022-10-27T08:22:20.347Z,6.43
2022-10-27T08:24:47.159Z,7.30
2022-10-27T08:27:13.876Z,12.05
2022-10-27T08:29:40.647Z,7.03
2022-10-27T08:32:07.407Z,5.18
2022-10-27T08:34:34.141Z,6.53
2022-10-27T08:37:00.888Z,8.90
2022-10-27T08:39:27.748Z,5.45
2022-10-27T08:42:38.791Z,6.55
2022-10-27T08:45:11.099Z,6.70
2022-10-27T08:47:38.067Z,6.67
2022-10-27T08:50:09.776Z,8.32
2022-10-27T08:52:47.875Z,7.82
2022-10-27T08:55:14.669Z,6.78
2022-10-27T08:57:53.254Z,6.55
2022-10-27T09:00:20.278Z,10.47
2022-10-27T09:02:56.151Z,7.03
2022-10-27T09:05:41.022Z,6.80
2022-10-27T09:08:20.119Z,5.57
2022-10-27T09:11:16.830Z,23.13
2022-10-27T09:14:11.455Z,5.87
2022-10-27T09:16:47.926Z,5.75
2022-10-27T09:19:30.276Z,6.53
2022-10-27T09:21:57.736Z,10.60
2022-10-27T09:24:28.460Z,6.07
2022-10-27T09:26:58.813Z,5.33
2022-10-27T09:29:25.615Z,6.10
2022-10-27T09:32:03.249Z,5.85
2022-10-27T09:34:39.803Z,7.30
2022-10-27T09:37:14.372Z,6.30
2022-10-27T09:39:46.941Z,5.00
2022-10-27T09:42:14.266Z,5.03
2022-10-27T09:44:51.898Z,9.35
2022-10-27T09:47:20.312Z,8.85
2022-10-27T09:49:47.781Z,7.95
2022-10-27T09:52:42.929Z,6.50
2022-10-27T09:55:10.695Z,8.20
2022-10-27T09:57:40.804Z,6.28
2022-10-27T10:00:09.574Z,7.50
2022-10-27T10:02:45.708Z,6.53
2022-10-27T10:05:23.134Z,13.43
2022-10-27T10:07:50.937Z,6.88
2022-10-27T10:10:28.712Z,7.72
2022-10-27T10:13:02.679Z,5.43
2022-10-27T10:15:33.213Z,6.30
2022-10-27T10:18:01.935Z,5.97
2022-10-27T10:23:27.455Z,7.10
2022-10-27T10:25:57.800Z,6.72
2022-10-27T10:29:05.718Z,4.28
2022-10-27T10:31:32.658Z,5.00
2022-10-27T10:34:05.480Z,5.47
2022-10-27T10:36:38.016Z,10.20
2022-10-27T10:39:24.763Z,9.60
2022-10-27T10:42:24.028Z,8.45
2022-10-27T10:45:10.342Z,8.63
2022-10-27T10:47:37.928Z,7.38
2022-10-27T10:50:12.596Z,5.20
2022-10-27T10:52:40.209Z,4.40
2022-10-27T10:55:17.133Z,6.70
2022-10-27T10:57:45.689Z,8.00
2022-10-27T11:00:16.928Z,6.57
2022-10-27T11:02:56.694Z,4.72
2022-10-27T11:05:31.197Z,5.30
2022-10-27T11:07:58.767Z,6.60
2022-10-27T11:10:30.856Z,6.33
2022-10-27T11:13:24.004Z,5.43
2022-10-27T11:16:03.447Z,16.38
2022-10-27T11:18:42.227Z,6.90
2022-10-27T11:21:31.831Z,5.13
2022-10-27T11:24:27.901Z,7.53
2022-10-27T11:26:59.102Z,6.70
2022-10-27T11:29:32.199Z,12.07
2022-10-27T11:32:14.095Z,5.70
2022-10-27T11:34:51.803Z,16.83
2022-10-27T11:37:28.957Z,5.87
2022-10-27T11:40:01.501Z,4.75
2022-10-27T11:42:36.640Z,5.05
2022-10-27T11:45:25.121Z,5.15
2022-10-27T11:48:00.123Z,9.55
2022-10-27T11:50:56.756Z,5.87
2022-10-27T11:53:23.758Z,6.47
2022-10-27T11:56:24.449Z,5.45
2022-10-27T11:58:54.294Z,5.60
2022-10-27T12:01:39.598Z,5.82
2022-10-27T12:07:30.501Z,8.20
2022-10-27T12:16:17.451Z,6.22
2022-10-27T12:18:44.171Z,6.00
2022-10-27T12:21:20.512Z,5.18
2022-10-27T12:24:11.692Z,15.27
2022-10-27T12:26:41.343Z,6.00
2022-10-27T12:29:09.618Z,5.68
2022-10-27T12:31:44.468Z,10.87
2022-10-27T12:34:15.307Z,5.07
2022-10-27T12:37:09.483Z,7.72
2022-10-27T12:40:09.602Z,9.15
2022-10-27T12:43:15.376Z,6.30
2022-10-27T12:45:44.914Z,5.77
2022-10-27T12:48:55.977Z,5.13
2022-10-27T12:51:28.337Z,7.63
2022-10-27T12:54:25.881Z,6.53
2022-10-27T12:57:22.369Z,11.43
2022-10-27T13:00:07.885Z,6.27
2022-10-27T13:02:46.242Z,9.20
2022-10-27T13:05:13.079Z,6.70
2022-10-27T13:07:57.812Z,7.28
2022-10-27T13:10:31.130Z,5.07
2022-10-27T13:13:17.464Z,23.07
2022-10-27T13:16:03.170Z,29.25
2022-10-27T13:18:32.533Z,8.75
2022-10-27T13:21:13.192Z,6.72
2022-10-27T13:24:16.847Z,6.32
2022-10-27T13:27:09.217Z,7.93
2022-10-27T13:29:47.982Z,7.57
2022-10-27T13:32:20.787Z,14.07
2022-10-27T13:35:13.435Z,7.43
2022-10-27T13:37:55.829Z,7.38
2022-10-27T13:40:22.762Z,8.63
2022-10-27T13:42:57.128Z,8.07
2022-10-27T13:45:26.982Z,13.18
2022-10-27T13:48:09.029Z,8.40
2022-10-27T13:50:38.027Z,14.82
2022-10-27T13:53:16.805Z,5.57
2022-10-27T13:55:48.160Z,6.68
2022-10-27T13:58:21.091Z,6.53
2022-10-27T14:01:14.810Z,4.43
2022-10-27T14:03:44.747Z,7.95
2022-10-27T14:06:14.761Z,13.50
2022-10-27T14:08:44.257Z,7.78
2022-10-27T14:11:18.478Z,5.22
2022-10-27T14:13:49.401Z,5.63
2022-10-27T14:16:23.937Z,5.43
2022-10-27T14:19:14.826Z,9.83
2022-10-27T14:21:47.614Z,11.00
2022-10-27T14:24:48.447Z,6.95
2022-10-27T14:27:18.126Z,10.63
2022-10-27T14:29:45.627Z,6.38
2022-10-27T14:32:21.704Z,7.83
2022-10-27T14:34:49.855Z,8.65
2022-10-27T14:37:35.639Z,10.68
2022-10-27T14:40:02.993Z,10.02
2022-10-27T14:42:33.002Z,9.38
2022-10-27T14:45:03.432Z,7.70
2022-10-27T14:47:32.551Z,5.68
2022-10-27T14:50:06.456Z,9.30
2022-10-27T14:52:45.887Z,12.35
2022-10-27T14:55:39.953Z,18.17
2022-10-27T14:58:20.175Z,13.13
2022-10-27T15:00:51.043Z,7.22
2022-10-27T15:03:17.843Z,7.93
2022-10-27T15:05:48.384Z,6.85
2022-10-27T15:08:21.567Z,4.45
2022-10-27T15:10:50.808Z,4.47
2022-10-27T15:13:20.443Z,8.73
2022-10-27T15:15:48.994Z,5.65
2022-10-27T15:18:27.872Z,5.70
2022-10-27T15:20:55.949Z,5.30
2022-10-27T15:23:23.273Z,5.93
2022-10-27T15:25:56.863Z,4.65
2022-10-27T15:28:29.721Z,4.82
2022-10-27T15:30:56.844Z,5.82
2022-10-27T15:33:28.179Z,7.10
2022-10-27T15:35:58.170Z,7.13
2022-10-27T15:38:27.605Z,4.75
2022-10-27T15:41:06.510Z,6.88
2022-10-27T15:43:33.565Z,9.55
2022-10-27T15:46:22.226Z,6.53
2022-10-27T15:49:11.122Z,5.40
2022-10-27T15:51:53.286Z,5.85
2022-10-27T15:54:34.946Z,7.75
2022-10-27T15:57:05.763Z,8.43
2022-10-27T15:59:33.962Z,5.43
2022-10-27T16:02:22.112Z,6.87
2022-10-27T16:04:50.107Z,7.10
2022-10-27T16:07:16.983Z,6.68
2022-10-27T16:09:47.883Z,7.40
2022-10-27T16:12:30.275Z,5.85
2022-10-27T16:15:00.230Z,7.50
2022-10-27T16:17:49.962Z,7.55
2022-10-27T16:20:26.966Z,14.10
2022-10-27T16:22:54.685Z,18.55
2022-10-27T16:25:28.705Z,13.23
2022-10-27T16:27:55.551Z,6.90
2022-10-27T16:30:23.595Z,7.85
2022-10-27T16:33:04.330Z,6.53
2022-10-27T16:35:31.269Z,5.32
2022-10-27T16:37:58.761Z,6.00
2022-10-27T16:40:25.662Z,5.87
2022-10-27T16:42:55.404Z,8.05
2022-10-27T16:45:22.615Z,8.00
2022-10-27T16:47:50.782Z,5.55
2022-10-27T16:50:22.630Z,5.65
2022-10-27T16:52:56.421Z,6.73
2022-10-27T16:55:23.704Z,6.43
2022-10-27T16:57:50.629Z,5.68
2022-10-27T17:00:17.667Z,5.40
2022-10-27T17:02:44.477Z,5.82
2022-10-27T17:05:11.236Z,5.37
2022-10-27T17:07:47.014Z,4.88
2022-10-27T17:10:16.667Z,6.38
2022-10-27T17:12:43.844Z,6.43
2022-10-27T17:15:13.663Z,5.78
2022-10-27T17:17:40.340Z,7.97
2022-10-27T17:20:07.731Z,6.35
2022-10-27T17:22:35.062Z,5.65
2022-10-27T17:25:02.039Z,5.45
2022-10-27T17:27:28.805Z,5.93
2022-10-27T17:29:56.040Z,4.93
2022-10-27T17:32:22.712Z,5.40
2022-10-27T17:34:49.483Z,4.60
2022-10-27T17:37:16.275Z,6.00
2022-10-27T17:39:43.168Z,7.25
2022-10-27T17:42:09.947Z,6.70
2022-10-27T17:44:36.629Z,6.07
2022-10-27T17:47:03.390Z,7.78
2022-10-27T17:49:30.266Z,6.43
2022-10-27T17:51:57.070Z,7.30
2022-10-27T17:54:23.781Z,6.83
2022-10-27T17:56:50.647Z,7.57
2022-10-27T18:11:25.821Z,9.05
2022-10-27T18:13:58.299Z,9.52
2022-10-27T18:16:30.326Z,8.75
2022-10-27T18:18:59.645Z,8.40
2022-10-27T18:21:28.441Z,8.18
2022-10-27T18:23:57.904Z,10.02
2022-10-27T18:26:26.128Z,8.13
2022-10-27T18:28:52.904Z,10.43
2022-10-27T18:31:25.376Z,8.97
2022-10-27T18:33:54.123Z,7.57
2022-10-27T18:36:23.305Z,6.78
2022-10-27T18:38:54.292Z,13.52
2022-10-27T18:41:21.957Z,7.53
2022-10-27T18:43:51.833Z,7.63
2022-10-27T18:46:20.011Z,6.78
2022-10-27T18:48:51.460Z,6.60
2022-10-27T18:51:18.376Z,7.82
2022-10-27T18:53:46.427Z,6.95
2022-10-27T18:56:18.473Z,7.80
2022-10-27T18:58:45.184Z,6.07
2022-10-27T19:01:14.520Z,9.20
2022-10-27T19:03:42.509Z,6.18
2022-10-27T19:06:12.067Z,6.40
2022-10-27T19:08:38.929Z,7.43
2022-10-27T19:11:08.414Z,7.65
2022-10-27T19:13:35.669Z,5.68
2022-10-27T19:16:03.815Z,6.32
2022-10-27T19:18:31.100Z,7.75
2022-10-27T19:21:02.894Z,4.97
2022-10-27T19:23:30.437Z,8.10
2022-10-27T19:26:15.290Z,6.22
2022-10-27T19:28:43.458Z,8.68
2022-10-27T19:31:16.114Z,7.95
2022-10-27T19:33:44.907Z,7.73
2022-10-27T19:36:14.554Z,7.72
2022-10-27T19:38:41.553Z,6.20
2022-10-27T19:41:16.532Z,7.03
2022-10-27T19:43:47.059Z,11.27
2022-10-27T19:46:19.113Z,5.77
2022-10-27T19:48:53.751Z,7.38
2022-10-27T19:51:23.559Z,5.85
2022-10-27T19:53:51.114Z,5.38
2022-10-27T19:56:18.476Z,6.80
2022-10-27T19:58:50.303Z,5.10
2022-10-27T20:01:22.774Z,6.55
2022-10-27T20:03:49.706Z,6.47
2022-10-27T20:06:17.316Z,6.05
2022-10-27T20:08:45.465Z,7.18
2022-10-27T20:11:13.529Z,5.70
2022-10-27T20:13:40.987Z,5.25
2022-10-27T20:16:09.395Z,6.63
2022-10-27T20:18:36.205Z,6.15
2022-10-27T20:21:03.051Z,5.80
2022-10-27T20:23:30.161Z,6.17
2022-10-27T20:26:24.344Z,6.68
2022-10-27T20:28:48.577Z,6.57
2022-10-27T20:31:15.274Z,6.85
2022-10-27T20:33:41.976Z,5.93
2022-10-27T20:36:11.146Z,5.63
2022-10-27T20:38:39.117Z,5.75
2022-10-27T20:41:07.498Z,7.15
2022-10-27T20:43:35.336Z,6.13
2022-10-27T20:46:03.814Z,5.95
2022-10-27T20:48:30.902Z,6.37
2022-10-27T20:51:03.551Z,5.80
2022-10-27T20:53:32.549Z,6.32
2022-10-27T20:55:59.377Z,6.97
2022-10-27T20:58:26.852Z,6.70
2022-10-27T21:00:54.025Z,5.60
2022-10-27T21:03:21.174Z,6.15
2022-10-27T21:05:47.990Z,5.45
2022-10-27T21:08:14.728Z,5.55
2022-10-27T21:10:41.522Z,5.15
2022-10-27T21:13:12.726Z,6.00
2022-10-27T21:15:40.481Z,6.28
2022-10-27T21:18:09.267Z,5.32
2022-10-27T21:20:37.595Z,5.82
2022-10-27T21:23:04.929Z,5.78
2022-10-27T21:25:31.654Z,6.43
2022-10-27T21:27:58.593Z,6.30
2022-10-27T21:30:26.059Z,5.85
2022-10-27T21:32:54.975Z,4.72
2022-10-27T21:35:23.523Z,5.07
2022-10-27T21:37:50.462Z,6.47
2022-10-27T21:40:17.286Z,5.38
2022-10-27T21:42:44.127Z,5.97
2022-10-27T21:45:12.002Z,4.78
2022-10-27T21:47:39.804Z,5.93
2022-10-27T21:50:09.939Z,5.97
2022-10-27T21:52:37.567Z,5.88
2022-10-27T21:55:05.624Z,7.03
2022-10-27T21:57:32.587Z,5.88
2022-10-27T21:59:59.311Z,5.05
2022-10-27T22:02:26.050Z,5.67
2022-10-27T22:04:52.932Z,5.65
2022-10-27T22:07:19.644Z,5.35
2022-10-27T22:09:46.396Z,6.75
2022-10-27T22:12:13.167Z,6.47
2022-10-27T22:14:40.014Z,4.53
2022-10-27T22:17:06.848Z,5.05
2022-10-27T22:19:33.659Z,7.28
2022-10-27T22:22:00.607Z,5.80
2022-10-27T22:24:27.408Z,5.30
2022-10-27T22:26:54.162Z,6.57
2022-10-27T22:29:20.881Z,4.85
2022-10-27T22:31:47.596Z,5.25
2022-10-27T22:34:14.398Z,7.68
2022-10-27T22:36:41.147Z,5.95
2022-10-27T22:39:08.008Z,6.37
2022-10-27T22:41:35.764Z,5.75
2022-10-27T22:44:02.504Z,6.22
2022-10-27T22:46:31.518Z,5.57
2022-10-27T22:48:58.374Z,5.65
2022-10-27T22:51:28.005Z,5.30
2022-10-27T22:53:56.575Z,5.45
2022-10-27T22:56:29.003Z,5.88
2022-10-27T22:58:58.555Z,5.35
2022-10-27T23:01:28.700Z,5.97
2022-10-27T23:03:57.847Z,5.80
2022-10-27T23:06:27.145Z,6.22
2022-10-27T23:08:59.937Z,8.07
2022-10-27T23:11:30.373Z,7.60
2022-10-27T23:13:57.083Z,4.70
2022-10-27T23:16:24.033Z,5.13
2022-10-27T23:18:50.742Z,5.68
2022-10-27T23:21:19.977Z,5.35
2022-10-27T23:23:46.835Z,4.88
2022-10-27T23:26:18.410Z,6.80
2022-10-27T23:28:48.876Z,4.80
2022-10-27T23:31:15.596Z,6.63
2022-10-27T23:33:42.382Z,6.25
2022-10-27T23:36:10.551Z,5.15
2022-10-27T23:38:37.520Z,6.07
2022-10-27T23:41:04.667Z,8.67
2022-10-27T23:43:31.463Z,8.43
2022-10-27T23:45:59.880Z,6.13
2022-10-27T23:48:26.622Z,4.53
2022-10-27T23:50:53.445Z,6.55
2022-10-27T23:53:20.150Z,4.67
2022-10-27T23:55:53.083Z,5.18
2022-10-27T23:58:19.992Z,5.72
